Time;durP1;ratioP1;P1;durP2;ratioP2;P2;SDS_P1;SDS_P2;PMS_P1;PMS_P2;Temp;Humidity;BMP_temperature;BMP_pressure;BME280_temperature;BME280_humidity;BME280_pressure;Samples;Min_cycle;Max_cycle;Signal;HPM_P1;HPM_P2
2021/10/02 00:45:31;;;;;;;2.37;1.90;;;14.60;99.90;;;;;;5062199;28;20993;-71
2021/10/02 00:47:57;;;;;;;1.50;1.40;;;14.60;99.90;;;;;;5045863;28;20555;-71
2021/10/02 00:50:24;;;;;;;3.27;2.50;;;14.60;99.90;;;;;;5041774;28;20454;-71
2021/10/02 00:52:50;;;;;;;1.83;1.70;;;14.60;99.90;;;;;;5058946;28;20457;-71
2021/10/02 00:55:16;;;;;;;1.87;1.77;;;14.70;99.90;;;;;;5051128;28;20462;-70
2021/10/02 00:57:42;;;;;;;5.70;2.10;;;14.70;99.90;;;;;;5067271;28;20256;-70
2021/10/02 01:00:09;;;;;;;3.40;2.20;;;14.70;99.90;;;;;;5036124;28;20531;-70
2021/10/02 01:02:51;;;;;;;3.40;2.10;;;14.70;99.90;;;;;;5048865;28;20496;-68
2021/10/02 01:05:19;;;;;;;2.13;1.83;;;14.70;99.90;;;;;;5035680;28;20475;-70
2021/10/02 01:07:59;;;;;;;2.43;1.93;;;14.70;99.90;;;;;;5068522;28;20849;-71
2021/10/02 01:10:44;;;;;;;2.43;2.23;;;14.70;99.90;;;;;;5048190;28;20466;-70
2021/10/02 01:13:12;;;;;;;2.73;1.90;;;14.70;99.90;;;;;;5064799;28;20460;-70
2021/10/02 01:15:50;;;;;;;2.30;1.70;;;14.70;99.90;;;;;;5043115;28;20559;-70
2021/10/02 01:18:18;;;;;;;1.90;1.50;;;14.70;99.90;;;;;;5047591;28;20454;-71
2021/10/02 01:21:22;;;;;;;1.83;1.60;;;14.60;99.90;;;;;;5030616;28;20464;-71
2021/10/02 01:24:16;;;;;;;3.67;1.70;;;14.60;99.90;;;;;;5047260;28;20453;-71
2021/10/02 01:27:16;;;;;;;1.53;1.43;;;14.60;99.90;;;;;;5026186;28;20544;-71
2021/10/02 01:29:44;;;;;;;3.60;1.93;;;14.60;99.90;;;;;;5046527;28;20463;-70
2021/10/02 01:32:30;;;;;;;2.17;1.93;;;14.60;99.90;;;;;;5067378;28;20453;-72
2021/10/02 01:48:39;;;;;;;2.40;2.00;;;14.60;99.90;;;;;;4971152;28;20470;-70
2021/10/02 01:51:06;;;;;;;4.90;1.90;;;14.60;99.90;;;;;;5007405;28;20450;-71
2021/10/02 01:53:36;;;;;;;2.30;1.80;;;14.60;99.90;;;;;;5043973;28;20469;-71
2021/10/02 01:56:08;;;;;;;1.87;1.60;;;14.60;99.90;;;;;;5026223;28;20474;-70
2021/10/02 01:58:35;;;;;;;4.33;2.07;;;14.60;99.90;;;;;;5047098;28;20461;-70
2021/10/02 02:01:03;;;;;;;4.60;1.93;;;14.60;99.90;;;;;;5033188;28;20476;-70
2021/10/02 02:03:31;;;;;;;3.43;1.90;;;14.60;99.90;;;;;;5030196;28;20459;-71
2021/10/02 02:05:58;;;;;;;2.47;2.17;;;14.60;99.90;;;;;;5027684;28;21086;-70
2021/10/02 02:08:25;;;;;;;2.03;1.60;;;14.60;99.90;;;;;;5030079;28;20868;-71
2021/10/02 02:10:54;;;;;;;1.60;1.50;;;14.60;99.90;;;;;;5049240;28;21041;-71
2021/10/02 02:13:21;;;;;;;4.20;1.90;;;14.60;99.90;;;;;;5028951;28;20496;-71
2021/10/02 02:15:48;;;;;;;2.70;2.10;;;14.50;99.90;;;;;;5064403;28;20462;-71
2021/10/02 02:18:21;;;;;;;3.87;2.37;;;14.60;99.90;;;;;;5061440;28;20458;-71
2021/10/02 02:20:58;;;;;;;1.60;1.50;;;14.50;99.90;;;;;;5048315;28;20456;-71
2021/10/02 02:23:25;;;;;;;2.60;2.00;;;14.50;99.90;;;;;;5020324;28;20532;-71
2021/10/02 02:25:56;;;;;;;2.33;1.60;;;14.50;99.90;;;;;;5030293;28;20471;-71
2021/10/02 02:28:23;;;;;;;1.70;1.60;;;14.50;99.90;;;;;;5046320;28;20465;-71
2021/10/02 02:30:49;;;;;;;1.53;1.20;;;14.50;99.90;;;;;;5046993;28;20465;-71
2021/10/02 02:33:16;;;;;;;2.30;1.43;;;14.50;99.90;;;;;;5050759;28;20514;-70
2021/10/02 02:35:44;;;;;;;2.30;2.10;;;14.60;99.90;;;;;;5064141;28;20465;-71
2021/10/02 02:38:10;;;;;;;1.60;1.50;;;14.60;99.90;;;;;;5033055;28;20468;-71
2021/10/02 02:40:36;;;;;;;6.10;1.77;;;14.60;99.90;;;;;;5049542;28;20460;-70
2021/10/02 02:43:01;;;;;;;2.00;1.80;;;14.60;99.90;;;;;;5036400;28;20977;-71
2021/10/02 02:45:28;;;;;;;2.27;2.03;;;14.60;99.90;;;;;;5033358;28;20226;-71
2021/10/02 02:48:00;;;;;;;2.27;1.70;;;14.60;99.90;;;;;;5047520;28;20216;-70
2021/10/02 02:50:37;;;;;;;1.50;1.40;;;14.60;99.90;;;;;;5043135;28;20454;-70
2021/10/02 02:53:38;;;;;;;1.60;1.50;;;14.60;99.90;;;;;;5034083;28;20457;-71
2021/10/02 02:56:11;;;;;;;2.67;1.50;;;14.60;99.90;;;;;;5044922;28;20458;-71
2021/10/02 02:58:39;;;;;;;2.80;1.97;;;14.60;99.90;;;;;;5049414;28;20529;-71
2021/10/02 03:01:06;;;;;;;2.30;1.93;;;14.50;99.90;;;;;;5044069;28;20550;-71
2021/10/02 03:03:36;;;;;;;2.70;2.10;;;14.50;99.90;;;;;;5029034;28;20455;-71
2021/10/02 03:06:09;;;;;;;2.27;1.83;;;14.50;99.90;;;;;;5050456;28;20462;-72
2021/10/02 03:08:38;;;;;;;2.60;2.00;;;14.60;99.90;;;;;;5047517;28;20865;-71
2021/10/02 03:11:05;;;;;;;2.40;1.50;;;14.50;99.90;;;;;;5046939;28;20465;-71
2021/10/02 03:13:35;;;;;;;3.17;1.93;;;14.50;99.90;;;;;;5041001;28;20458;-70
2021/10/02 03:16:03;;;;;;;1.77;1.67;;;14.60;99.90;;;;;;5047387;28;20458;-71
2021/10/02 03:18:32;;;;;;;3.07;1.50;;;14.50;99.90;;;;;;5027708;28;20539;-69
2021/10/02 03:20:58;;;;;;;1.83;1.60;;;14.60;99.90;;;;;;5049741;28;20454;-71
2021/10/02 03:23:26;;;;;;;2.30;2.10;;;14.50;99.90;;;;;;5041037;28;20469;-70
2021/10/02 03:25:53;;;;;;;4.83;1.77;;;14.50;99.90;;;;;;5043010;28;20467;-70
2021/10/02 03:28:19;;;;;;;2.47;2.10;;;14.50;99.90;;;;;;5048127;28;21072;-70
2021/10/02 03:30:45;;;;;;;2.03;1.87;;;14.50;99.90;;;;;;5033804;28;20461;-70
2021/10/02 03:33:14;;;;;;;3.10;1.80;;;14.50;99.90;;;;;;5043778;28;20500;-70
2021/10/02 03:35:41;;;;;;;2.47;1.67;;;14.50;99.90;;;;;;5049232;28;20222;-71
2021/10/02 03:38:07;;;;;;;3.27;2.00;;;14.50;99.90;;;;;;5050787;28;20457;-70
2021/10/02 03:40:32;;;;;;;3.53;1.50;;;14.50;99.90;;;;;;5059418;28;20453;-69
2021/10/02 03:42:58;;;;;;;4.17;2.17;;;14.50;99.90;;;;;;5046676;28;20469;-71
2021/10/02 03:45:28;;;;;;;4.63;2.37;;;14.40;99.90;;;;;;5027997;28;20310;-70
2021/10/02 03:47:53;;;;;;;2.50;1.40;;;14.40;99.90;;;;;;5024479;28;20454;-70
2021/10/02 03:50:20;;;;;;;3.00;1.97;;;14.40;99.90;;;;;;5033732;28;20469;-70
2021/10/02 03:52:45;;;;;;;3.70;1.67;;;14.40;99.90;;;;;;5043051;28;20683;-70
2021/10/02 03:55:13;;;;;;;2.50;1.80;;;14.40;99.90;;;;;;5048061;28;20465;-70
2021/10/02 03:57:40;;;;;;;1.97;1.87;;;14.40;99.90;;;;;;5058023;28;20216;-71
2021/10/02 04:00:08;;;;;;;1.87;1.73;;;14.40;99.90;;;;;;5029680;28;20446;-70
2021/10/02 04:02:33;;;;;;;4.17;1.80;;;14.40;99.90;;;;;;5048022;28;20579;-71
2021/10/02 04:04:59;;;;;;;4.77;2.03;;;14.40;99.90;;;;;;5063982;28;20557;-70
2021/10/02 04:07:25;;;;;;;2.40;2.03;;;14.40;99.90;;;;;;5061996;28;20308;-71
2021/10/02 04:09:50;;;;;;;2.00;1.67;;;14.40;99.90;;;;;;5041724;28;20216;-70
2021/10/02 04:12:16;;;;;;;1.87;1.57;;;14.40;99.90;;;;;;5061747;28;20260;-70
2021/10/02 04:14:42;;;;;;;1.33;1.20;;;14.40;99.90;;;;;;5026281;28;20690;-72
2021/10/02 04:17:07;;;;;;;2.30;1.73;;;14.40;99.90;;;;;;5043695;28;20776;-70
2021/10/02 04:19:33;;;;;;;2.13;1.90;;;14.40;99.90;;;;;;5022926;28;20219;-70
2021/10/02 04:21:59;;;;;;;2.53;1.70;;;14.40;99.90;;;;;;5045304;28;20320;-71
2021/10/02 04:24:25;;;;;;;2.60;1.90;;;14.40;99.90;;;;;;5063550;28;20224;-69
2021/10/02 04:26:52;;;;;;;1.30;1.10;;;14.40;99.90;;;;;;5051769;28;20222;-71
2021/10/02 04:29:17;;;;;;;2.60;1.80;;;14.50;99.90;;;;;;5029205;28;20449;-71
2021/10/02 04:31:43;;;;;;;3.70;1.83;;;14.40;99.90;;;;;;5036349;28;20953;-71
2021/10/02 04:34:09;;;;;;;6.03;1.70;;;14.40;99.90;;;;;;5049399;28;20215;-71
2021/10/02 04:36:35;;;;;;;3.30;2.00;;;14.40;99.90;;;;;;5049983;28;20262;-70
2021/10/02 04:39:02;;;;;;;2.77;1.70;;;14.30;99.90;;;;;;5063015;28;20710;-70
2021/10/02 04:41:28;;;;;;;1.53;1.30;;;14.40;99.90;;;;;;5033890;28;20211;-70
2021/10/02 04:43:53;;;;;;;1.43;1.20;;;14.40;99.90;;;;;;5036919;28;20973;-70
2021/10/02 04:46:19;;;;;;;2.07;1.80;;;14.40;99.90;;;;;;5031554;28;20231;-70
2021/10/02 04:48:47;;;;;;;2.40;1.50;;;14.30;99.90;;;;;;5034910;28;20207;-70
2021/10/02 04:51:13;;;;;;;1.60;1.50;;;14.30;99.90;;;;;;5045503;28;20547;-70
2021/10/02 04:53:39;;;;;;;2.53;1.30;;;14.40;99.90;;;;;;5048006;28;20508;-68
2021/10/02 04:56:08;;;;;;;2.73;1.60;;;14.30;99.90;;;;;;5050188;28;20544;-70
2021/10/02 04:58:34;;;;;;;1.50;1.40;;;14.40;99.90;;;;;;5052647;28;20522;-70
2021/10/02 05:01:02;;;;;;;1.70;1.60;;;14.30;99.90;;;;;;5036995;28;20980;-70
2021/10/02 05:03:28;;;;;;;1.33;1.23;;;14.40;99.90;;;;;;5053078;28;20222;-70
2021/10/02 05:05:54;;;;;;;2.00;1.67;;;14.40;99.90;;;;;;5053744;28;20453;-70
2021/10/02 05:08:19;;;;;;;1.50;1.40;;;14.40;99.90;;;;;;5053477;28;20215;-70
2021/10/02 05:10:45;;;;;;;1.40;1.30;;;14.40;99.90;;;;;;5050818;28;20251;-70
2021/10/02 05:13:11;;;;;;;1.37;1.27;;;14.30;99.90;;;;;;5071354;28;20717;-70
2021/10/02 05:15:37;;;;;;;2.80;1.47;;;14.30;99.90;;;;;;5053739;28;20245;-70
2021/10/02 05:18:03;;;;;;;2.77;1.60;;;14.30;99.90;;;;;;5045523;28;20496;-70
2021/10/02 05:20:29;;;;;;;1.77;1.50;;;14.30;99.90;;;;;;5070128;28;20808;-70
2021/10/02 05:22:57;;;;;;;3.23;1.53;;;14.30;99.90;;;;;;5036150;28;20218;-70
2021/10/02 05:25:23;;;;;;;1.40;1.30;;;14.30;99.90;;;;;;5036442;28;20499;-71
2021/10/02 05:27:48;;;;;;;2.77;1.37;;;14.30;99.90;;;;;;5053859;28;20977;-70
2021/10/02 05:30:14;;;;;;;2.93;1.80;;;14.30;99.90;;;;;;5053631;28;20453;-70
2021/10/02 05:32:40;;;;;;;1.60;1.43;;;14.30;99.90;;;;;;5063694;28;20215;-70
2021/10/02 05:35:06;;;;;;;4.50;2.03;;;14.30;99.90;;;;;;5049286;28;20247;-70
2021/10/02 05:37:32;;;;;;;5.67;1.80;;;14.30;99.90;;;;;;5053025;28;20302;-70
2021/10/02 05:39:57;;;;;;;1.57;1.47;;;14.30;99.90;;;;;;5035321;28;20537;-70
2021/10/02 05:42:23;;;;;;;2.73;1.57;;;14.30;99.90;;;;;;5035596;28;20220;-70
2021/10/02 05:44:49;;;;;;;1.70;1.40;;;14.30;99.90;;;;;;5053412;28;20249;-71
2021/10/02 05:47:14;;;;;;;2.40;1.57;;;14.30;99.90;;;;;;5068178;28;20235;-70
2021/10/02 05:49:41;;;;;;;6.27;1.67;;;14.30;99.90;;;;;;5045666;28;20215;-70
2021/10/02 05:52:09;;;;;;;2.20;1.73;;;14.30;99.90;;;;;;5035493;28;20245;-70
2021/10/02 05:54:39;;;;;;;1.90;1.70;;;14.30;99.90;;;;;;5036030;28;20846;-71
2021/10/02 05:57:05;;;;;;;2.67;1.60;;;14.30;99.90;;;;;;5028929;28;20465;-71
2021/10/02 05:59:30;;;;;;;2.47;2.10;;;14.30;99.90;;;;;;5044968;28;20830;-70
2021/10/02 06:01:56;;;;;;;2.73;2.10;;;14.30;99.90;;;;;;5034624;28;20230;-70
2021/10/02 06:04:22;;;;;;;5.10;2.07;;;14.30;99.90;;;;;;5050228;28;20231;-71
2021/10/02 06:06:48;;;;;;;3.43;1.47;;;14.30;99.90;;;;;;5016435;28;20232;-70
2021/10/02 06:09:13;;;;;;;2.80;1.87;;;14.30;99.90;;;;;;5051309;28;20223;-71
2021/10/02 06:11:39;;;;;;;6.80;2.17;;;14.30;99.90;;;;;;5020036;28;20219;-70
2021/10/02 06:14:05;;;;;;;8.63;2.30;;;14.30;99.90;;;;;;5044571;28;20231;-70
2021/10/02 06:16:32;;;;;;;1.80;1.70;;;14.30;99.90;;;;;;5052695;28;20234;-70
2021/10/02 06:18:58;;;;;;;2.30;1.77;;;14.30;99.90;;;;;;5033450;28;20981;-71
2021/10/02 06:21:24;;;;;;;3.20;2.07;;;14.30;99.90;;;;;;5043969;28;20462;-70
2021/10/02 06:23:49;;;;;;;1.67;1.50;;;14.30;99.90;;;;;;5023015;28;20245;-70
2021/10/02 06:26:15;;;;;;;1.77;1.67;;;14.30;99.90;;;;;;5042497;28;20610;-70
2021/10/02 06:28:41;;;;;;;1.67;1.57;;;14.30;99.90;;;;;;5032198;28;21732;-70
2021/10/02 06:31:06;;;;;;;2.70;1.47;;;14.30;99.90;;;;;;5049322;28;20270;-70
2021/10/02 06:33:32;;;;;;;2.20;1.73;;;14.30;99.90;;;;;;5043033;28;20231;-70
2021/10/02 06:35:57;;;;;;;3.43;2.17;;;14.30;99.90;;;;;;5052433;28;20247;-70
2021/10/02 06:38:23;;;;;;;3.40;1.97;;;14.40;99.90;;;;;;5052202;28;20306;-70
2021/10/02 06:40:50;;;;;;;2.30;2.10;;;14.40;99.90;;;;;;5035556;28;20315;-71
2021/10/02 06:43:15;;;;;;;1.70;1.60;;;14.40;99.90;;;;;;5050401;28;20326;-71
2021/10/02 06:45:41;;;;;;;1.80;1.60;;;14.40;99.90;;;;;;5031963;28;20518;-72
2021/10/02 06:48:07;;;;;;;2.80;1.57;;;14.40;99.90;;;;;;5015997;28;20277;-71
2021/10/02 06:50:33;;;;;;;2.00;1.77;;;14.40;99.90;;;;;;5023283;28;20465;-71
2021/10/02 06:53:00;;;;;;;1.93;1.73;;;14.40;99.90;;;;;;5063647;28;20699;-71
2021/10/02 06:55:25;;;;;;;1.43;1.33;;;14.40;99.90;;;;;;5035280;28;20500;-70
2021/10/02 06:57:51;;;;;;;5.13;1.50;;;14.40;99.90;;;;;;5034041;28;20481;-71
2021/10/02 07:00:17;;;;;;;2.10;1.60;;;14.40;99.90;;;;;;5051733;28;20230;-71
2021/10/02 07:02:44;;;;;;;2.73;2.00;;;14.40;99.90;;;;;;5069035;28;20294;-71
2021/10/02 07:05:11;;;;;;;1.60;1.50;;;14.40;99.90;;;;;;5069693;28;20231;-71
2021/10/02 07:07:37;;;;;;;2.37;2.17;;;14.40;99.90;;;;;;5034066;28;20460;-71
2021/10/02 07:10:06;;;;;;;2.30;2.10;;;14.40;99.90;;;;;;5035625;28;20447;-71
2021/10/02 07:12:31;;;;;;;3.03;2.33;;;14.50;99.90;;;;;;5064205;28;20540;-70
2021/10/02 07:14:57;;;;;;;8.23;2.73;;;14.50;99.90;;;;;;5054136;28;20533;-71
2021/10/02 07:17:23;;;;;;;2.33;2.10;;;14.50;99.90;;;;;;5031362;28;20314;-71
2021/10/02 07:19:48;;;;;;;2.80;2.60;;;14.50;99.90;;;;;;5017219;28;20212;-71
2021/10/02 07:22:14;;;;;;;2.47;1.80;;;14.50;99.90;;;;;;5049801;28;20224;-71
2021/10/02 07:24:39;;;;;;;3.37;2.10;;;14.50;99.90;;;;;;5049407;28;20223;-71
2021/10/02 07:27:05;;;;;;;2.50;1.63;;;14.50;99.90;;;;;;5039597;28;20227;-72
2021/10/02 07:29:31;;;;;;;2.80;1.77;;;14.50;99.90;;;;;;5051628;28;20289;-71
2021/10/02 07:31:57;;;;;;;2.70;1.93;;;14.50;99.90;;;;;;5068760;28;20227;-71
2021/10/02 07:34:22;;;;;;;2.63;2.10;;;14.60;99.90;;;;;;5066811;28;20459;-72
2021/10/02 07:36:48;;;;;;;3.50;1.83;;;14.60;99.90;;;;;;5059562;28;20261;-71
2021/10/02 07:39:14;;;;;;;2.20;1.60;;;14.70;99.90;;;;;;5034972;28;20222;-72
2021/10/02 07:41:42;;;;;;;4.00;2.50;;;14.70;99.90;;;;;;5048894;28;20223;-72
2021/10/02 07:44:11;;;;;;;3.17;1.87;;;14.80;99.90;;;;;;5064969;28;20227;-71
2021/10/02 07:46:41;;;;;;;3.90;1.70;;;14.80;99.90;;;;;;5033914;28;20600;-72
2021/10/02 07:49:07;;;;;;;4.23;2.03;;;14.80;99.90;;;;;;5034210;28;20930;-71
2021/10/02 07:51:33;;;;;;;1.63;1.40;;;14.90;99.90;;;;;;5045606;28;20532;-72
2021/10/02 07:53:59;;;;;;;2.40;1.70;;;14.90;99.90;;;;;;5041864;28;20220;-71
2021/10/02 07:56:27;;;;;;;1.90;1.80;;;14.90;99.90;;;;;;5022667;28;20853;-71
2021/10/02 07:58:54;;;;;;;2.70;2.00;;;15.00;99.90;;;;;;5049815;28;20315;-71
2021/10/02 08:01:22;;;;;;;1.53;1.43;;;15.00;99.90;;;;;;5059923;28;20530;-70
2021/10/02 08:03:51;;;;;;;4.03;1.40;;;15.10;99.90;;;;;;5042751;28;20469;-71
2021/10/02 08:06:17;;;;;;;3.43;1.70;;;15.20;99.90;;;;;;5014071;28;20611;-71
2021/10/02 08:08:43;;;;;;;1.80;1.53;;;15.20;99.90;;;;;;5049756;28;20480;-71
2021/10/02 08:11:09;;;;;;;3.77;1.87;;;15.20;99.90;;;;;;5033845;28;20454;-71
2021/10/02 08:13:35;;;;;;;2.00;1.60;;;15.30;99.90;;;;;;5045147;28;20466;-71
2021/10/02 08:16:01;;;;;;;1.80;1.70;;;15.30;99.90;;;;;;5031290;28;20239;-71
2021/10/02 08:18:35;;;;;;;1.57;1.43;;;15.30;99.90;;;;;;5028641;28;20241;-71
2021/10/02 08:21:01;;;;;;;3.20;1.40;;;15.40;99.90;;;;;;5050043;28;20453;-71
2021/10/02 08:23:27;;;;;;;1.93;1.40;;;15.50;99.90;;;;;;5049607;28;20462;-71
2021/10/02 08:25:53;;;;;;;1.73;1.40;;;15.70;99.90;;;;;;5026143;28;20469;-71
2021/10/02 08:28:20;;;;;;;1.20;1.10;;;15.70;99.90;;;;;;5061866;28;20457;-71
2021/10/02 08:30:49;;;;;;;1.30;1.20;;;15.90;99.90;;;;;;5043898;28;20502;-71
2021/10/02 08:33:15;;;;;;;1.80;1.70;;;15.90;99.90;;;;;;5033080;28;20476;-71
2021/10/02 08:35:42;;;;;;;1.67;1.10;;;16.00;99.90;;;;;;5050196;28;20972;-70
2021/10/02 08:38:09;;;;;;;1.73;1.33;;;16.00;99.90;;;;;;5049865;28;20230;-70
2021/10/02 08:40:35;;;;;;;2.20;1.50;;;16.00;99.90;;;;;;5045881;28;20466;-70
2021/10/02 08:43:02;;;;;;;2.00;1.80;;;16.00;99.90;;;;;;5025961;28;20443;-72
2021/10/02 08:45:30;;;;;;;2.30;1.33;;;16.10;99.90;;;;;;5046573;28;20458;-71
2021/10/02 08:47:58;;;;;;;2.77;2.20;;;16.20;99.90;;;;;;5033057;28;20453;-70
2021/10/02 08:50:25;;;;;;;1.70;1.60;;;16.20;99.90;;;;;;5032496;28;20474;-71
2021/10/02 08:52:53;;;;;;;3.27;1.60;;;16.30;99.90;;;;;;5049836;28;20957;-71
2021/10/02 08:55:21;;;;;;;2.17;1.53;;;16.40;99.90;;;;;;5067316;28;20466;-71
2021/10/02 08:57:48;;;;;;;4.47;2.20;;;16.40;99.90;;;;;;5047487;28;20534;-71
2021/10/02 09:00:17;;;;;;;2.00;1.57;;;16.40;99.90;;;;;;5048892;28;20449;-71
2021/10/02 09:02:45;;;;;;;2.17;1.77;;;16.50;99.90;;;;;;5027265;28;20442;-71
2021/10/02 09:05:11;;;;;;;1.70;1.60;;;16.60;99.90;;;;;;5029956;28;20508;-70
2021/10/02 09:07:38;;;;;;;1.63;1.53;;;16.70;99.90;;;;;;5046686;28;20489;-71
2021/10/02 09:10:07;;;;;;;1.60;1.50;;;16.80;99.90;;;;;;5016794;28;20466;-71
2021/10/02 09:12:33;;;;;;;1.87;1.60;;;17.00;99.90;;;;;;5045194;28;20845;-71
2021/10/02 09:15:02;;;;;;;1.60;1.50;;;17.10;99.90;;;;;;5016664;28;20462;-71
2021/10/02 09:17:30;;;;;;;1.50;1.40;;;17.20;99.90;;;;;;5033333;28;20313;-70
2021/10/02 09:19:57;;;;;;;2.70;1.53;;;17.30;99.90;;;;;;5017503;28;20460;-71
2021/10/02 09:22:23;;;;;;;2.50;1.53;;;17.50;99.90;;;;;;5021028;28;20505;-71
2021/10/02 09:24:51;;;;;;;3.57;1.60;;;17.70;99.90;;;;;;5041929;28;20465;-71
2021/10/02 09:27:18;;;;;;;1.60;1.50;;;17.80;99.90;;;;;;5033064;28;20468;-71
2021/10/02 09:30:07;;;;;;;1.73;1.63;;;17.90;99.90;;;;;;5052454;28;20438;-70
2021/10/02 09:32:41;;;;;;;1.77;1.50;;;17.90;99.90;;;;;;5045004;28;20457;-72
2021/10/02 09:35:16;;;;;;;2.13;1.67;;;17.90;99.90;;;;;;5037182;28;20466;-71
2021/10/02 09:37:44;;;;;;;2.20;1.90;;;18.00;99.90;;;;;;5053010;28;20528;-70
2021/10/02 09:40:18;;;;;;;3.83;2.27;;;18.10;99.90;;;;;;5025241;28;20529;-71
2021/10/02 09:42:54;;;;;;;1.80;1.50;;;18.10;99.90;;;;;;5015986;28;20465;-71
2021/10/02 09:45:24;;;;;;;2.03;1.33;;;18.10;99.90;;;;;;5033364;28;20508;-71
2021/10/02 09:48:01;;;;;;;1.93;1.33;;;18.10;99.90;;;;;;5059976;28;20446;-71
2021/10/02 09:50:31;;;;;;;1.77;1.63;;;18.20;99.90;;;;;;5048044;28;20461;-72
2021/10/02 09:53:11;;;;;;;1.73;1.40;;;18.20;99.90;;;;;;5052234;28;20535;-71
2021/10/02 09:55:42;;;;;;;2.93;1.77;;;18.20;99.90;;;;;;5052381;28;20556;-71
2021/10/02 09:58:10;;;;;;;5.33;1.40;;;18.20;99.90;;;;;;5044608;28;20458;-70
2021/10/02 10:00:41;;;;;;;1.87;1.47;;;18.20;99.90;;;;;;5065514;28;20466;-70
2021/10/02 10:03:09;;;;;;;2.10;1.70;;;18.20;99.90;;;;;;5049377;28;20453;-72
2021/10/02 10:05:38;;;;;;;3.53;1.97;;;18.30;99.90;;;;;;5070552;28;20465;-70
2021/10/02 10:08:06;;;;;;;1.53;1.43;;;18.30;99.90;;;;;;5034047;28;20491;-71
2021/10/02 10:10:34;;;;;;;2.00;1.60;;;18.40;99.90;;;;;;5043713;28;20450;-71
2021/10/02 10:13:11;;;;;;;1.87;1.40;;;18.40;99.90;;;;;;5036093;28;20453;-71
2021/10/02 10:15:39;;;;;;;2.07;1.50;;;18.40;99.90;;;;;;5032542;28;20826;-71
2021/10/02 10:18:08;;;;;;;1.50;1.40;;;18.50;99.90;;;;;;5062897;28;20867;-71
2021/10/02 10:20:39;;;;;;;3.63;1.37;;;18.60;99.90;;;;;;5052493;28;20446;-71
2021/10/02 10:23:07;;;;;;;1.33;1.30;;;18.60;99.90;;;;;;5029713;28;20469;-71
2021/10/02 10:25:33;;;;;;;2.63;2.07;;;18.70;99.90;;;;;;5028758;28;20466;-71
2021/10/02 10:28:02;;;;;;;1.97;1.87;;;18.80;99.90;;;;;;5026484;28;20464;-71
2021/10/02 10:30:29;;;;;;;1.77;1.67;;;18.90;99.90;;;;;;5064350;28;20453;-71
2021/10/02 10:33:08;;;;;;;1.77;1.67;;;19.10;99.90;;;;;;5052954;28;20457;-71
2021/10/02 10:35:40;;;;;;;1.67;1.30;;;19.10;99.90;;;;;;5054550;28;20965;-71
2021/10/02 10:38:09;;;;;;;1.13;1.10;;;19.20;99.90;;;;;;5044977;28;20477;-70
2021/10/02 10:40:35;;;;;;;3.00;1.60;;;19.30;99.90;;;;;;5065283;28;20450;-71
2021/10/02 10:43:01;;;;;;;1.53;1.43;;;19.50;99.90;;;;;;5047267;28;20472;-72
2021/10/02 10:45:28;;;;;;;1.20;1.10;;;19.60;99.90;;;;;;5032846;28;20468;-70
2021/10/02 10:47:56;;;;;;;2.50;1.60;;;19.60;99.90;;;;;;5029586;28;20461;-71
2021/10/02 10:50:23;;;;;;;1.33;1.23;;;19.70;99.90;;;;;;5051120;28;20453;-70
2021/10/02 10:52:48;;;;;;;1.60;1.50;;;19.80;99.90;;;;;;5066702;28;20469;-71
2021/10/02 10:55:17;;;;;;;1.47;1.37;;;19.90;99.90;;;;;;5032959;28;21037;-71
2021/10/02 10:57:52;;;;;;;1.50;1.40;;;19.90;99.90;;;;;;5054248;28;20230;-71
2021/10/02 11:00:38;;;;;;;1.40;1.30;;;19.90;99.90;;;;;;5032061;28;20457;-72
2021/10/02 11:03:07;;;;;;;1.93;1.47;;;20.00;99.90;;;;;;5054455;28;20468;-71
2021/10/02 11:05:39;;;;;;;1.87;1.57;;;20.00;99.90;;;;;;5049633;28;20461;-71
2021/10/02 11:08:07;;;;;;;2.23;1.60;;;20.10;99.90;;;;;;5047867;28;20496;-71
2021/10/02 11:10:41;;;;;;;2.00;1.53;;;20.10;99.90;;;;;;5038676;28;20996;-71
2021/10/02 11:13:18;;;;;;;1.30;1.20;;;20.20;99.90;;;;;;5038904;28;20451;-71
2021/10/02 11:15:44;;;;;;;1.63;1.50;;;20.10;99.90;;;;;;5051068;28;20495;-71
2021/10/02 11:18:49;;;;;;;1.87;1.43;;;20.10;99.90;;;;;;5033957;28;20453;-70
2021/10/02 11:21:19;;;;;;;5.63;1.80;;;20.20;99.90;;;;;;5049565;28;20976;-71
2021/10/02 11:24:04;;;;;;;2.47;1.73;;;20.20;99.90;;;;;;5034352;28;20446;-71
2021/10/02 11:26:43;;;;;;;1.93;1.73;;;20.40;99.90;;;;;;5053931;28;20505;-70
2021/10/02 11:29:18;;;;;;;1.90;1.63;;;20.40;99.90;;;;;;5043268;28;20457;-71
2021/10/02 11:31:44;;;;;;;1.70;1.60;;;20.50;99.90;;;;;;5037703;28;20454;-70
2021/10/02 11:34:21;;;;;;;1.23;1.13;;;20.50;99.90;;;;;;5050862;28;20454;-71
2021/10/02 11:36:57;;;;;;;1.70;1.60;;;20.40;99.90;;;;;;5064230;28;20222;-70
2021/10/02 11:39:25;;;;;;;4.93;1.70;;;20.40;99.90;;;;;;5047157;28;20733;-71
2021/10/02 11:42:12;;;;;;;3.57;2.20;;;20.40;99.90;;;;;;5050634;28;20453;-70
2021/10/02 11:44:50;;;;;;;2.03;1.27;;;20.40;99.90;;;;;;5051159;28;20510;-71
2021/10/02 11:47:39;;;;;;;2.10;1.60;;;20.50;99.90;;;;;;5033698;28;20549;-71
2021/10/02 11:50:08;;;;;;;1.33;1.23;;;20.60;99.90;;;;;;5042676;28;20459;-70
2021/10/02 11:52:54;;;;;;;1.87;1.10;;;20.60;99.90;;;;;;5038822;28;20544;-71
2021/10/02 11:55:35;;;;;;;1.50;1.40;;;20.60;99.90;;;;;;5031060;28;20469;-70
2021/10/02 11:58:10;;;;;;;1.80;1.60;;;20.70;99.90;;;;;;5041593;28;20497;-72
2021/10/02 12:00:36;;;;;;;2.57;2.33;;;20.70;99.90;;;;;;5030717;28;20561;-68
2021/10/02 12:03:03;;;;;;;1.93;1.83;;;20.70;99.90;;;;;;5031799;28;20462;-70
2021/10/02 12:05:29;;;;;;;2.57;1.50;;;20.80;99.90;;;;;;5032540;28;20457;-69
2021/10/02 12:07:56;;;;;;;1.43;1.23;;;20.80;99.90;;;;;;5028687;28;20527;-71
2021/10/02 12:10:22;;;;;;;1.47;1.17;;;21.00;99.90;;;;;;5032740;28;20454;-71
2021/10/02 12:12:47;;;;;;;1.70;1.60;;;21.10;99.90;;;;;;5049482;28;20449;-70
2021/10/02 12:15:34;;;;;;;1.50;1.40;;;21.20;99.80;;;;;;5050830;28;20469;-70
2021/10/02 12:18:00;;;;;;;1.90;1.13;;;21.30;99.60;;;;;;5045792;28;20226;-71
2021/10/02 12:20:37;;;;;;;2.00;1.73;;;21.30;99.80;;;;;;5046460;28;20965;-71
2021/10/02 12:23:04;;;;;;;2.17;1.07;;;21.40;99.60;;;;;;5043676;28;20460;-70
2021/10/02 12:25:30;;;;;;;3.80;1.20;;;21.40;99.30;;;;;;5059888;28;20472;-70
2021/10/02 12:27:55;;;;;;;1.60;1.20;;;21.40;99.30;;;;;;5049080;28;20449;-71
2021/10/02 12:30:21;;;;;;;4.57;1.27;;;21.50;99.80;;;;;;5043019;28;20219;-70
2021/10/02 12:33:02;;;;;;;1.93;1.50;;;21.40;99.90;;;;;;5048227;28;20222;-71
2021/10/02 12:35:28;;;;;;;1.60;1.50;;;21.40;99.90;;;;;;5050804;28;20218;-68
2021/10/02 12:37:57;;;;;;;1.93;1.30;;;21.50;99.90;;;;;;5066701;28;20445;-71
2021/10/02 12:40:25;;;;;;;2.77;1.30;;;21.60;99.80;;;;;;5034914;28;20480;-71
2021/10/02 12:42:53;;;;;;;1.50;1.40;;;21.60;99.70;;;;;;5018034;28;20441;-71
2021/10/02 12:45:25;;;;;;;1.13;1.13;;;21.70;99.30;;;;;;5039523;28;20865;-71
2021/10/02 12:47:55;;;;;;;2.33;1.20;;;21.80;99.10;;;;;;5049188;28;20511;-71
2021/10/02 12:50:24;;;;;;;1.47;1.13;;;21.80;99.00;;;;;;5035477;28;21005;-71
2021/10/02 12:52:52;;;;;;;1.00;1.00;;;21.80;99.00;;;;;;5052523;28;20928;-71
2021/10/02 12:55:19;;;;;;;2.20;1.23;;;21.80;99.00;;;;;;5028190;28;20468;-70
2021/10/02 12:57:47;;;;;;;0.97;0.97;;;21.80;99.00;;;;;;5036792;28;20461;-71
2021/10/02 13:00:28;;;;;;;2.23;1.30;;;21.90;98.50;;;;;;5052199;28;21040;-70
2021/10/02 13:02:59;;;;;;;2.87;1.60;;;21.90;98.90;;;;;;5038036;28;21010;-71
2021/10/02 13:05:32;;;;;;;0.97;0.90;;;21.90;98.50;;;;;;5016722;28;20853;-71
2021/10/02 13:08:00;;;;;;;1.00;1.00;;;22.00;98.40;;;;;;5032749;28;20468;-70
2021/10/02 13:10:33;;;;;;;2.03;1.00;;;22.00;98.70;;;;;;5035113;28;20492;-71
2021/10/02 13:13:04;;;;;;;1.37;0.87;;;22.10;98.40;;;;;;5053583;28;20453;-70
2021/10/02 13:15:39;;;;;;;0.87;0.87;;;22.10;98.10;;;;;;5032999;28;20450;-69
2021/10/02 13:18:19;;;;;;;1.70;0.90;;;22.10;98.20;;;;;;5021767;28;20473;-71
2021/10/02 13:20:45;;;;;;;1.27;1.10;;;22.10;98.20;;;;;;5042993;28;20446;-71
2021/10/02 13:23:40;;;;;;;3.77;0.87;;;22.10;98.00;;;;;;5058942;28;20845;-70
2021/10/02 13:26:09;;;;;;;4.23;1.30;;;22.00;97.80;;;;;;5046645;28;20630;-70
2021/10/02 13:28:43;;;;;;;1.73;1.63;;;22.00;97.80;;;;;;5054013;28;20541;-70
2021/10/02 13:31:14;;;;;;;2.00;1.70;;;22.00;97.50;;;;;;5059127;28;20450;-70
2021/10/02 13:33:42;;;;;;;3.23;1.20;;;22.00;97.60;;;;;;5029330;28;20445;-70
2021/10/02 13:36:18;;;;;;;2.20;1.10;;;21.90;97.20;;;;;;5036333;28;20457;-71
2021/10/02 13:38:44;;;;;;;1.50;1.27;;;21.90;96.70;;;;;;5036231;28;20437;-71
2021/10/02 13:41:12;;;;;;;1.37;1.07;;;21.80;96.70;;;;;;5050485;28;20961;-70
2021/10/02 13:43:56;;;;;;;1.63;1.20;;;21.80;96.90;;;;;;5044442;28;20231;-70
2021/10/02 13:46:28;;;;;;;0.83;0.83;;;21.80;96.80;;;;;;5035824;28;20477;-70
2021/10/02 13:48:56;;;;;;;1.57;0.97;;;21.80;96.70;;;;;;5034924;28;20536;-71
2021/10/02 13:51:21;;;;;;;1.43;1.00;;;21.80;96.80;;;;;;5047669;28;20827;-70
2021/10/02 13:53:48;;;;;;;1.00;0.90;;;21.80;97.10;;;;;;5049784;28;20530;-71
2021/10/02 13:56:14;;;;;;;2.00;1.57;;;21.80;97.20;;;;;;5049427;28;20237;-70